Open Full Screen Window  High Contrast Mode
Wind Gusting 00 knots
10
October 26, 2014 1:09 AM EDT
Weather Information
Wind Direction
  310 °
Wind Speed
  10 kt (12 mph)
Wind Gust
  00 kt (0 mph)
Altimeter
29.93 in
Visibility
10 SM
Temperature
17° C
63° F
Dewpoint
08° C
46° F
Humidity
56%
1hr Rain Fall
00.00 in.
24hr Rain Fall
00.00 in.
Sky Condition
Clear
VFR

METAR KI69 260509Z AUTO 31010KT 10SM CLR 17/08 A2993 RMK AO1

*Background is not an actual portrayal of the airport.